Time;durP1;ratioP1;P1;durP2;ratioP2;P2;SDS_P1;SDS_P2;PMS_P1;PMS_P2;Temp;Humidity;BMP_temperature;BMP_pressure;BME280_temperature;BME280_humidity;BME280_pressure;Samples;Min_cycle;Max_cycle;Signal;HPM_P1;HPM_P2
2021/05/09 00:01:39;;;;;;;14.97;11.07;;;;;;;;;;744254;186;919300;-80
2021/05/09 00:04:05;;;;;;;18.97;10.07;;;;;;;;;;741019;185;1019904;-79
2021/05/09 00:06:31;;;;;;;18.47;11.90;;;;;;;;;;755433;186;1021387;-80
2021/05/09 00:08:57;;;;;;;21.47;11.70;;;;;;;;;;744658;186;1021056;-79
2021/05/09 00:11:23;;;;;;;18.47;11.60;;;;;;;;;;744436;186;987815;-80
2021/05/09 00:13:49;;;;;;;17.60;11.80;;;;;;;;;;748330;185;918984;-79
2021/05/09 00:16:15;;;;;;;15.33;11.47;;;;;;;;;;740600;187;1022570;-78
2021/05/09 00:18:40;;;;;;;21.63;11.90;;;;;;;;;;742579;185;1020996;-79
2021/05/09 00:21:06;;;;;;;16.40;11.57;;;;;;;;;;748710;186;917840;-79
2021/05/09 00:23:32;;;;;;;17.40;11.47;;;;;;;;;;742387;187;911638;-80
2021/05/09 00:25:59;;;;;;;15.80;11.18;;;;;;;;;;740738;187;1060573;-78
2021/05/09 00:28:25;;;;;;;16.57;11.70;;;;;;;;;;744041;185;1021645;-78
2021/05/09 00:30:51;;;;;;;17.00;11.40;;;;;;;;;;751933;186;918227;-80
2021/05/09 00:33:16;;;;;;;19.23;10.90;;;;;;;;;;749848;185;919318;-77
2021/05/09 00:35:42;;;;;;;15.23;11.50;;;;;;;;;;744758;185;916620;-79
2021/05/09 00:38:08;;;;;;;15.70;10.07;;;;;;;;;;751404;185;917015;-80
2021/05/09 00:40:34;;;;;;;19.97;10.93;;;;;;;;;;742911;185;948065;-79
2021/05/09 00:43:00;;;;;;;15.50;12.00;;;;;;;;;;745348;186;913826;-79
2021/05/09 00:45:26;;;;;;;16.20;10.60;;;;;;;;;;749459;186;914517;-78
2021/05/09 00:47:51;;;;;;;20.93;11.60;;;;;;;;;;741428;185;1219956;-79
2021/05/09 00:50:17;;;;;;;18.30;11.97;;;;;;;;;;742850;185;918859;-78
2021/05/09 00:52:43;;;;;;;18.70;11.35;;;;;;;;;;746112;185;912759;-77
2021/05/09 00:55:10;;;;;;;15.57;10.30;;;;;;;;;;746656;187;908937;-79
2021/05/09 00:57:36;;;;;;;13.80;10.50;;;;;;;;;;746247;185;915712;-77
2021/05/09 01:00:02;;;;;;;11.23;7.20;;;;;;;;;;743095;187;918780;-78
2021/05/09 01:02:27;;;;;;;16.30;10.67;;;;;;;;;;746860;187;918243;-79
2021/05/09 01:04:53;;;;;;;17.93;12.53;;;;;;;;;;743928;187;919341;-78
2021/05/09 01:07:19;;;;;;;15.07;9.70;;;;;;;;;;742228;186;918688;-78
2021/05/09 01:09:45;;;;;;;15.37;9.80;;;;;;;;;;749101;188;919695;-78
2021/05/09 01:12:11;;;;;;;13.00;9.90;;;;;;;;;;743355;186;918972;-78
2021/05/09 01:14:37;;;;;;;14.65;10.00;;;;;;;;;;745047;187;1020725;-78
2021/05/09 01:17:03;;;;;;;12.63;9.60;;;;;;;;;;747728;187;918741;-78
2021/05/09 01:19:28;;;;;;;14.30;9.60;;;;;;;;;;742821;188;1020637;-78
2021/05/09 01:21:55;;;;;;;11.70;8.60;;;;;;;;;;741215;187;1020330;-77
2021/05/09 01:24:21;;;;;;;10.80;7.43;;;;;;;;;;742853;185;918629;-77
2021/05/09 01:26:47;;;;;;;13.30;8.77;;;;;;;;;;750057;186;885512;-78
2021/05/09 01:29:13;;;;;;;14.20;8.03;;;;;;;;;;743890;185;918392;-78
2021/05/09 01:31:39;;;;;;;14.70;9.55;;;;;;;;;;741446;187;996185;-77
2021/05/09 01:34:05;;;;;;;11.40;8.03;;;;;;;;;;752931;184;919591;-78
2021/05/09 01:36:31;;;;;;;14.27;9.07;;;;;;;;;;746171;185;919968;-77
2021/05/09 01:38:56;;;;;;;11.83;9.33;;;;;;;;;;742502;185;918734;-75
2021/05/09 01:41:22;;;;;;;14.90;10.07;;;;;;;;;;752012;186;918477;-77
2021/05/09 01:43:48;;;;;;;14.37;9.17;;;;;;;;;;745529;184;919477;-77
2021/05/09 01:46:14;;;;;;;15.43;8.17;;;;;;;;;;747055;186;919693;-77
2021/05/09 01:48:40;;;;;;;13.50;8.73;;;;;;;;;;747171;185;636420;-75
2021/05/09 01:51:06;;;;;;;13.73;8.80;;;;;;;;;;753544;186;621643;-76
2021/05/09 01:53:31;;;;;;;11.13;8.43;;;;;;;;;;743480;185;918641;-77
2021/05/09 01:55:57;;;;;;;13.00;8.60;;;;;;;;;;745638;186;917241;-77
2021/05/09 01:58:23;;;;;;;16.77;9.45;;;;;;;;;;752068;183;919261;-77
2021/05/09 02:00:49;;;;;;;12.47;8.50;;;;;;;;;;745408;185;1021774;-76
2021/05/09 02:03:15;;;;;;;13.20;8.07;;;;;;;;;;745320;184;919398;-76
2021/05/09 02:05:41;;;;;;;14.60;9.57;;;;;;;;;;747996;188;919538;-77
2021/05/09 02:08:07;;;;;;;13.55;9.70;;;;;;;;;;742626;185;919340;-77
2021/05/09 02:10:33;;;;;;;12.87;8.60;;;;;;;;;;741510;187;919310;-76
2021/05/09 02:12:58;;;;;;;12.32;8.82;;;;;;;;;;747940;185;1020329;-77
2021/05/09 02:15:24;;;;;;;12.83;8.13;;;;;;;;;;740497;184;1022030;-77
2021/05/09 02:17:50;;;;;;;11.67;7.70;;;;;;;;;;743759;185;919493;-77
2021/05/09 02:20:16;;;;;;;9.60;7.03;;;;;;;;;;745363;185;919044;-76
2021/05/09 02:22:42;;;;;;;10.07;8.20;;;;;;;;;;750403;185;919183;-76
2021/05/09 02:25:08;;;;;;;10.60;7.40;;;;;;;;;;744952;185;919467;-77
2021/05/09 02:27:34;;;;;;;11.47;6.90;;;;;;;;;;743198;186;1043459;-77
2021/05/09 02:30:00;;;;;;;11.87;8.47;;;;;;;;;;745646;187;919067;-77
2021/05/09 02:32:26;;;;;;;11.60;7.77;;;;;;;;;;742218;187;1022064;-78
2021/05/09 02:34:51;;;;;;;21.92;11.15;;;;;;;;;;741564;185;1002818;-77
2021/05/09 02:37:17;;;;;;;15.35;8.00;;;;;;;;;;747753;187;919337;-76
2021/05/09 02:39:45;;;;;;;14.13;9.30;;;;;;;;;;744558;187;918700;-78
2021/05/09 02:42:09;;;;;;;11.20;8.70;;;;;;;;;;742211;185;919455;-78
2021/05/09 02:44:35;;;;;;;14.20;9.33;;;;;;;;;;749889;185;613273;-77
2021/05/09 02:47:01;;;;;;;13.27;8.30;;;;;;;;;;751349;185;625833;-79
2021/05/09 02:49:28;;;;;;;11.93;7.20;;;;;;;;;;749677;185;914727;-79
2021/05/09 02:51:52;;;;;;;13.50;8.30;;;;;;;;;;744384;185;1029312;-79
2021/05/09 02:54:18;;;;;;;11.37;7.70;;;;;;;;;;754876;184;623770;-79
2021/05/09 02:56:44;;;;;;;14.00;7.80;;;;;;;;;;741725;186;1016751;-78
2021/05/09 02:59:10;;;;;;;14.13;8.20;;;;;;;;;;746584;186;915094;-79
2021/05/09 03:01:36;;;;;;;15.83;9.47;;;;;;;;;;748633;185;910492;-78
2021/05/09 03:04:02;;;;;;;20.02;11.20;;;;;;;;;;745183;184;909309;-78
2021/05/09 03:06:27;;;;;;;21.87;10.93;;;;;;;;;;744427;185;1012582;-78
2021/05/09 03:08:53;;;;;;;16.97;9.97;;;;;;;;;;748331;187;912586;-79
2021/05/09 03:11:21;;;;;;;15.70;10.20;;;;;;;;;;742446;187;1021889;-79
2021/05/09 03:13:45;;;;;;;16.10;8.80;;;;;;;;;;745325;185;919084;-79
2021/05/09 03:16:11;;;;;;;14.07;9.57;;;;;;;;;;747060;188;817219;-77
2021/05/09 03:18:37;;;;;;;16.97;10.40;;;;;;;;;;748999;184;1021785;-77
2021/05/09 03:21:03;;;;;;;13.77;9.17;;;;;;;;;;747169;185;711346;-77
2021/05/09 03:23:29;;;;;;;14.63;8.73;;;;;;;;;;741564;185;1678705;-79
2021/05/09 03:25:54;;;;;;;18.35;10.77;;;;;;;;;;749531;187;919765;-78
2021/05/09 03:28:20;;;;;;;14.00;8.80;;;;;;;;;;742470;187;1023529;-78
2021/05/09 03:30:46;;;;;;;12.50;8.03;;;;;;;;;;742869;187;920577;-76
2021/05/09 03:33:12;;;;;;;11.83;8.80;;;;;;;;;;746426;187;911847;-77
2021/05/09 03:35:38;;;;;;;13.57;7.57;;;;;;;;;;744337;186;1019792;-76
2021/05/09 03:38:05;;;;;;;13.13;8.40;;;;;;;;;;743637;186;1022515;-77
2021/05/09 03:40:29;;;;;;;11.83;7.57;;;;;;;;;;743892;185;1035591;-78
2021/05/09 03:42:55;;;;;;;14.00;8.67;;;;;;;;;;742165;185;928093;-77
2021/05/09 03:45:21;;;;;;;13.80;7.93;;;;;;;;;;743519;187;913509;-77
2021/05/09 03:47:47;;;;;;;12.20;7.33;;;;;;;;;;742034;186;917626;-77
2021/05/09 03:50:13;;;;;;;12.10;7.47;;;;;;;;;;750427;186;909019;-78
2021/05/09 03:52:39;;;;;;;11.97;7.90;;;;;;;;;;745847;187;908484;-78
2021/05/09 03:55:05;;;;;;;13.32;8.52;;;;;;;;;;745864;185;902503;-77
2021/05/09 03:57:31;;;;;;;10.27;7.10;;;;;;;;;;747549;187;809868;-78
2021/05/09 03:59:57;;;;;;;11.03;6.83;;;;;;;;;;739457;187;880300;-77
2021/05/09 04:02:23;;;;;;;9.97;7.37;;;;;;;;;;743021;184;918942;-78
2021/05/09 04:04:49;;;;;;;19.85;10.20;;;;;;;;;;749280;185;861893;-75
2021/05/09 04:07:15;;;;;;;13.77;8.63;;;;;;;;;;752325;184;919048;-76
2021/05/09 04:09:40;;;;;;;18.47;9.03;;;;;;;;;;743656;184;919030;-78
2021/05/09 04:12:08;;;;;;;14.00;8.60;;;;;;;;;;744038;185;919267;-78
2021/05/09 04:14:33;;;;;;;14.90;9.43;;;;;;;;;;747488;186;918733;-78
2021/05/09 04:16:58;;;;;;;18.00;10.23;;;;;;;;;;746595;185;994369;-77
2021/05/09 04:19:24;;;;;;;16.53;10.00;;;;;;;;;;743784;185;918905;-78
2021/05/09 04:21:50;;;;;;;17.10;11.33;;;;;;;;;;748257;188;1018030;-78
2021/05/09 04:24:16;;;;;;;19.73;10.43;;;;;;;;;;739701;186;1489621;-77
2021/05/09 04:26:41;;;;;;;21.60;11.70;;;;;;;;;;743841;186;1020638;-80
2021/05/09 04:29:09;;;;;;;18.80;11.67;;;;;;;;;;747119;188;1016226;-77
2021/05/09 04:31:35;;;;;;;14.13;9.60;;;;;;;;;;744104;185;1298024;-78
2021/05/09 04:34:01;;;;;;;19.10;13.67;;;;;;;;;;743980;187;916459;-78
2021/05/09 04:36:27;;;;;;;16.83;12.00;;;;;;;;;;743564;185;909082;-76
2021/05/09 04:38:52;;;;;;;20.70;11.73;;;;;;;;;;751980;185;910663;-76
2021/05/09 04:41:18;;;;;;;22.00;11.33;;;;;;;;;;742579;186;919006;-74
2021/05/09 04:43:44;;;;;;;13.82;10.93;;;;;;;;;;743348;187;919405;-75
2021/05/09 04:46:10;;;;;;;15.90;10.87;;;;;;;;;;745284;186;962672;-75
2021/05/09 04:48:36;;;;;;;17.43;11.23;;;;;;;;;;741917;187;993938;-76
2021/05/09 04:51:02;;;;;;;14.27;9.43;;;;;;;;;;740840;185;919549;-75
2021/05/09 04:53:31;;;;;;;15.90;11.77;;;;;;;;;;747533;185;1021355;-75
2021/05/09 04:55:57;;;;;;;12.67;9.27;;;;;;;;;;747323;186;918749;-75
2021/05/09 04:58:23;;;;;;;14.47;10.50;;;;;;;;;;742390;186;919592;-75
2021/05/09 05:00:50;;;;;;;11.33;8.00;;;;;;;;;;734969;187;2141359;-74
2021/05/09 05:03:16;;;;;;;12.90;8.80;;;;;;;;;;748155;185;1123593;-74
2021/05/09 05:05:42;;;;;;;11.40;7.97;;;;;;;;;;742064;185;1014152;-72
2021/05/09 05:08:08;;;;;;;10.10;7.47;;;;;;;;;;746281;184;918500;-74
2021/05/09 05:10:34;;;;;;;14.00;7.70;;;;;;;;;;748328;186;967126;-74
2021/05/09 05:13:00;;;;;;;9.80;6.67;;;;;;;;;;744099;185;904572;-72
2021/05/09 05:15:25;;;;;;;7.50;5.55;;;;;;;;;;745949;185;1024412;-70
2021/05/09 05:17:52;;;;;;;7.68;4.97;;;;;;;;;;745078;185;1305970;-72
2021/05/09 05:20:18;;;;;;;13.00;5.17;;;;;;;;;;748034;184;919903;-74
2021/05/09 05:22:44;;;;;;;10.17;4.97;;;;;;;;;;743116;185;918937;-72
2021/05/09 05:25:10;;;;;;;6.03;3.60;;;;;;;;;;745305;185;917993;-72
2021/05/09 05:27:36;;;;;;;5.00;3.13;;;;;;;;;;747785;184;918799;-71
2021/05/09 05:30:02;;;;;;;4.10;2.87;;;;;;;;;;746991;185;919458;-74
2021/05/09 05:32:27;;;;;;;4.30;3.33;;;;;;;;;;743378;186;1010617;-73
2021/05/09 05:34:53;;;;;;;5.87;4.00;;;;;;;;;;749687;186;914362;-72
2021/05/09 05:37:19;;;;;;;4.40;3.23;;;;;;;;;;740083;185;1457887;-72
2021/05/09 05:39:45;;;;;;;5.10;3.10;;;;;;;;;;738125;188;912330;-74
2021/05/09 05:42:11;;;;;;;5.53;3.63;;;;;;;;;;742520;188;912290;-73
2021/05/09 05:44:37;;;;;;;4.90;2.90;;;;;;;;;;746741;184;911837;-71
2021/05/09 05:47:03;;;;;;;4.57;2.90;;;;;;;;;;733261;191;620016;-71
2021/05/09 05:49:29;;;;;;;3.93;2.73;;;;;;;;;;733059;187;988418;-72
2021/05/09 05:51:54;;;;;;;4.73;2.40;;;;;;;;;;720437;194;919498;-70
2021/05/09 05:54:20;;;;;;;3.43;2.50;;;;;;;;;;730294;190;919036;-73
2021/05/09 05:56:46;;;;;;;4.27;2.83;;;;;;;;;;719388;193;919629;-70
2021/05/09 05:59:12;;;;;;;4.50;2.55;;;;;;;;;;747008;185;909320;-71
2021/05/09 06:01:38;;;;;;;3.43;2.43;;;;;;;;;;743718;187;919248;-70
2021/05/09 06:04:04;;;;;;;3.47;2.33;;;;;;;;;;741691;186;881528;-71
2021/05/09 06:06:30;;;;;;;5.40;2.50;;;;;;;;;;747588;186;917975;-74
2021/05/09 06:08:56;;;;;;;3.80;2.80;;;;;;;;;;744157;185;919383;-74
2021/05/09 06:11:22;;;;;;;4.73;3.20;;;;;;;;;;747322;186;628177;-71
2021/05/09 06:13:47;;;;;;;6.80;2.97;;;;;;;;;;746155;185;630388;-71
2021/05/09 06:16:13;;;;;;;5.50;2.60;;;;;;;;;;752547;187;628288;-72
2021/05/09 06:18:39;;;;;;;3.23;2.30;;;;;;;;;;747144;185;637655;-70
2021/05/09 06:21:05;;;;;;;3.73;2.70;;;;;;;;;;752066;185;631836;-72
2021/05/09 06:23:31;;;;;;;3.27;2.20;;;;;;;;;;748799;185;799715;-70
2021/05/09 06:25:57;;;;;;;3.20;2.40;;;;;;;;;;744045;185;1245790;-70
2021/05/09 06:28:22;;;;;;;4.20;3.20;;;;;;;;;;748470;185;637119;-70
2021/05/09 06:30:48;;;;;;;3.20;2.47;;;;;;;;;;751894;186;648192;-70
2021/05/09 06:33:14;;;;;;;3.57;2.57;;;;;;;;;;749198;185;620440;-71
2021/05/09 06:35:40;;;;;;;3.23;2.33;;;;;;;;;;748372;185;632463;-73
2021/05/09 06:38:07;;;;;;;6.17;2.47;;;;;;;;;;750393;186;648797;-71
2021/05/09 06:40:32;;;;;;;4.53;2.13;;;;;;;;;;745454;185;619344;-69
2021/05/09 06:42:58;;;;;;;4.70;2.40;;;;;;;;;;748494;184;631557;-73
2021/05/09 06:45:26;;;;;;;3.00;2.20;;;;;;;;;;746670;185;650389;-70
2021/05/09 06:47:50;;;;;;;4.00;2.40;;;;;;;;;;754429;185;636041;-70
2021/05/09 06:50:16;;;;;;;4.77;2.60;;;;;;;;;;747861;186;650604;-70
2021/05/09 06:52:42;;;;;;;4.23;2.50;;;;;;;;;;742256;185;1995942;-70
2021/05/09 06:55:08;;;;;;;3.23;2.40;;;;;;;;;;749517;187;635322;-71
2021/05/09 06:57:34;;;;;;;3.73;2.20;;;;;;;;;;747709;186;634991;-70
2021/05/09 06:59:59;;;;;;;2.90;2.30;;;;;;;;;;747348;185;616375;-71
2021/05/09 07:02:25;;;;;;;3.67;2.20;;;;;;;;;;749963;187;638215;-70
2021/05/09 07:04:51;;;;;;;5.03;2.30;;;;;;;;;;747414;185;637504;-70
2021/05/09 07:07:17;;;;;;;3.00;2.13;;;;;;;;;;745666;184;635534;-71
2021/05/09 07:09:43;;;;;;;3.77;1.90;;;;;;;;;;747235;185;617398;-69
2021/05/09 07:12:09;;;;;;;6.13;1.83;;;;;;;;;;749747;186;690584;-68
2021/05/09 07:14:35;;;;;;;3.23;2.30;;;;;;;;;;750099;186;629875;-70
2021/05/09 07:17:01;;;;;;;3.63;2.03;;;;;;;;;;746119;185;626341;-70
2021/05/09 07:19:27;;;;;;;3.17;2.27;;;;;;;;;;751466;185;631045;-68
2021/05/09 07:21:56;;;;;;;3.10;1.90;;;;;;;;;;746400;186;629721;-68
2021/05/09 07:24:18;;;;;;;2.83;2.07;;;;;;;;;;748195;186;633252;-71
2021/05/09 07:26:45;;;;;;;4.03;2.20;;;;;;;;;;749353;186;616344;-69
2021/05/09 07:29:10;;;;;;;3.37;1.97;;;;;;;;;;747109;186;630216;-68
2021/05/09 07:31:40;;;;;;;2.80;1.77;;;;;;;;;;745429;186;659854;-70
2021/05/09 07:34:01;;;;;;;3.10;1.67;;;;;;;;;;747007;186;640689;-69
2021/05/09 07:36:28;;;;;;;3.43;2.23;;;;;;;;;;748598;185;629860;-69
2021/05/09 07:38:53;;;;;;;3.13;2.00;;;;;;;;;;750941;181;628675;-68
2021/05/09 07:41:19;;;;;;;3.97;1.87;;;;;;;;;;749723;186;625133;-70
2021/05/09 07:43:46;;;;;;;5.40;2.37;;;;;;;;;;752077;184;617858;-68
2021/05/09 07:46:11;;;;;;;2.83;2.10;;;;;;;;;;749545;185;633387;-67
2021/05/09 07:48:37;;;;;;;4.90;2.00;;;;;;;;;;745946;185;634688;-69
2021/05/09 07:51:03;;;;;;;2.10;1.57;;;;;;;;;;752384;186;630847;-68
2021/05/09 07:53:29;;;;;;;4.37;1.90;;;;;;;;;;748629;185;711139;-69
2021/05/09 07:55:55;;;;;;;5.20;2.07;;;;;;;;;;751818;186;629546;-68
2021/05/09 07:58:20;;;;;;;3.30;2.10;;;;;;;;;;749264;185;625981;-69
2021/05/09 08:00:46;;;;;;;4.03;2.10;;;;;;;;;;748506;185;627497;-67
2021/05/09 08:03:12;;;;;;;5.83;2.50;;;;;;;;;;747099;185;618001;-68
2021/05/09 08:05:38;;;;;;;4.90;2.47;;;;;;;;;;747437;185;626791;-67
2021/05/09 08:08:04;;;;;;;3.90;2.10;;;;;;;;;;750190;184;633954;-67
2021/05/09 08:10:30;;;;;;;3.33;2.20;;;;;;;;;;748643;185;635501;-67
2021/05/09 08:12:55;;;;;;;2.40;1.70;;;;;;;;;;741485;184;1932394;-69
2021/05/09 08:15:22;;;;;;;3.07;2.10;;;;;;;;;;750904;188;628168;-67
2021/05/09 08:17:47;;;;;;;2.80;1.80;;;;;;;;;;749649;186;642372;-67
2021/05/09 08:20:13;;;;;;;14.57;2.10;;;;;;;;;;745951;186;635453;-67
2021/05/09 08:22:39;;;;;;;3.07;2.00;;;;;;;;;;750627;186;630211;-66
2021/05/09 08:25:05;;;;;;;2.50;1.50;;;;;;;;;;744943;187;633970;-68
2021/05/09 08:27:33;;;;;;;4.27;2.07;;;;;;;;;;748198;187;639491;-67
2021/05/09 08:29:57;;;;;;;4.70;2.10;;;;;;;;;;745379;185;635516;-67
2021/05/09 08:32:23;;;;;;;2.87;1.70;;;;;;;;;;754341;186;632450;-67
2021/05/09 08:34:49;;;;;;;3.00;1.97;;;;;;;;;;744313;185;736261;-67
2021/05/09 08:37:15;;;;;;;2.23;1.47;;;;;;;;;;747340;187;659371;-68
2021/05/09 08:39:40;;;;;;;5.87;1.93;;;;;;;;;;749251;185;677079;-70
2021/05/09 08:42:06;;;;;;;3.67;1.93;;;;;;;;;;748356;186;622733;-67
2021/05/09 08:44:33;;;;;;;3.43;1.80;;;;;;;;;;746291;185;630839;-68
2021/05/09 08:46:58;;;;;;;2.93;2.10;;;;;;;;;;752086;186;613888;-68
2021/05/09 08:49:24;;;;;;;3.80;1.80;;;;;;;;;;747854;185;624430;-68
2021/05/09 08:51:50;;;;;;;2.67;1.67;;;;;;;;;;749287;186;623954;-68
2021/05/09 08:54:16;;;;;;;2.78;1.80;;;;;;;;;;751359;184;641835;-69
2021/05/09 08:56:42;;;;;;;3.10;1.60;;;;;;;;;;748386;186;622967;-67
2021/05/09 08:59:09;;;;;;;2.90;1.90;;;;;;;;;;748399;186;626434;-70
2021/05/09 09:01:34;;;;;;;3.80;1.70;;;;;;;;;;745859;186;632970;-68
2021/05/09 09:03:59;;;;;;;2.97;1.80;;;;;;;;;;753164;186;622017;-68
2021/05/09 09:06:31;;;;;;;3.10;1.80;;;;;;;;;;749609;185;634154;-67
2021/05/09 09:08:57;;;;;;;2.80;1.70;;;;;;;;;;748987;185;621135;-68
2021/05/09 09:11:23;;;;;;;2.83;1.80;;;;;;;;;;750109;186;624734;-69
2021/05/09 09:13:49;;;;;;;2.50;1.70;;;;;;;;;;742931;185;1719689;-70
2021/05/09 09:16:15;;;;;;;4.03;1.60;;;;;;;;;;744933;186;631733;-70
2021/05/09 09:18:41;;;;;;;3.30;1.70;;;;;;;;;;751525;184;638826;-71
2021/05/09 09:21:13;;;;;;;5.03;2.07;;;;;;;;;;749485;184;635538;-69
2021/05/09 09:23:42;;;;;;;2.60;1.60;;;;;;;;;;748446;185;634377;-70
2021/05/09 09:26:14;;;;;;;2.20;1.57;;;;;;;;;;746482;185;633267;-67
2021/05/09 09:28:40;;;;;;;3.40;1.67;;;;;;;;;;746765;185;626948;-68
2021/05/09 09:31:06;;;;;;;3.20;1.97;;;;;;;;;;750910;186;611595;-68
2021/05/09 09:33:32;;;;;;;2.70;1.50;;;;;;;;;;749214;184;627535;-68
2021/05/09 09:35:59;;;;;;;2.20;1.30;;;;;;;;;;748725;187;628827;-70
2021/05/09 09:38:25;;;;;;;3.20;1.70;;;;;;;;;;750097;187;620040;-67
2021/05/09 09:40:57;;;;;;;2.33;1.50;;;;;;;;;;747855;187;614322;-68
2021/05/09 09:43:23;;;;;;;6.10;1.80;;;;;;;;;;745374;185;638726;-68
2021/05/09 09:45:48;;;;;;;7.77;1.97;;;;;;;;;;747255;187;621924;-68
2021/05/09 09:48:14;;;;;;;3.37;1.43;;;;;;;;;;749285;186;617418;-66
2021/05/09 09:50:40;;;;;;;2.50;1.73;;;;;;;;;;743723;185;919532;-68
2021/05/09 09:53:12;;;;;;;3.27;1.80;;;;;;;;;;743257;186;916144;-66
2021/05/09 09:55:37;;;;;;;3.47;1.67;;;;;;;;;;748128;185;631676;-67
2021/05/09 09:58:03;;;;;;;7.77;1.87;;;;;;;;;;749681;186;630528;-67
2021/05/09 10:00:29;;;;;;;2.70;1.63;;;;;;;;;;749098;186;627987;-68
2021/05/09 10:02:55;;;;;;;4.07;1.93;;;;;;;;;;748404;185;614091;-70
2021/05/09 10:05:21;;;;;;;4.83;1.63;;;;;;;;;;754150;186;631309;-68
2021/05/09 10:07:47;;;;;;;2.30;1.60;;;;;;;;;;746780;185;702138;-66
2021/05/09 10:10:13;;;;;;;2.47;1.40;;;;;;;;;;749619;185;620645;-66
2021/05/09 10:12:39;;;;;;;4.07;1.63;;;;;;;;;;751424;185;633065;-72
2021/05/09 10:15:05;;;;;;;3.63;1.90;;;;;;;;;;749218;185;616889;-69
2021/05/09 10:17:31;;;;;;;2.90;1.70;;;;;;;;;;743204;186;918756;-67
2021/05/09 10:19:57;;;;;;;3.23;2.03;;;;;;;;;;743375;185;915983;-66
2021/05/09 10:22:26;;;;;;;6.90;1.50;;;;;;;;;;745129;186;914981;-68
2021/05/09 10:24:52;;;;;;;2.10;1.20;;;;;;;;;;743902;186;914992;-67
2021/05/09 10:27:17;;;;;;;2.90;1.70;;;;;;;;;;742632;186;921197;-67
2021/05/09 10:29:47;;;;;;;9.00;2.93;;;;;;;;;;738435;186;2683747;-66
2021/05/09 10:32:27;;;;;;;4.20;1.40;;;;;;;;;;745099;186;918969;-66
2021/05/09 10:35:08;;;;;;;2.97;2.23;;;;;;;;;;743819;184;914806;-71
2021/05/09 10:37:50;;;;;;;2.83;1.50;;;;;;;;;;744011;185;919318;-66
2021/05/09 10:40:26;;;;;;;4.30;1.40;;;;;;;;;;741664;184;907298;-68
2021/05/09 10:42:57;;;;;;;2.10;1.33;;;;;;;;;;744319;185;919385;-68
2021/05/09 10:45:29;;;;;;;3.97;1.63;;;;;;;;;;740860;187;920514;-66
2021/05/09 10:48:00;;;;;;;3.13;1.87;;;;;;;;;;744650;186;918807;-67
2021/05/09 10:50:29;;;;;;;2.10;1.30;;;;;;;;;;748794;184;616358;-68
2021/05/09 10:52:52;;;;;;;5.18;1.67;;;;;;;;;;744095;187;919057;-69
2021/05/09 10:55:24;;;;;;;2.87;1.43;;;;;;;;;;741964;187;923246;-68
2021/05/09 10:57:49;;;;;;;3.23;1.60;;;;;;;;;;742935;185;920426;-67
2021/05/09 11:00:15;;;;;;;2.33;1.40;;;;;;;;;;747165;186;916403;-68
2021/05/09 11:02:42;;;;;;;4.67;1.63;;;;;;;;;;745279;185;1143651;-66
2021/05/09 11:05:08;;;;;;;3.20;2.00;;;;;;;;;;741149;186;950945;-67
2021/05/09 11:07:39;;;;;;;2.67;1.30;;;;;;;;;;749744;187;916596;-66
2021/05/09 11:10:19;;;;;;;2.87;1.37;;;;;;;;;;744034;186;915599;-67
2021/05/09 11:13:00;;;;;;;3.27;1.40;;;;;;;;;;750986;185;630160;-67
2021/05/09 11:15:26;;;;;;;3.10;1.97;;;;;;;;;;746293;183;947452;-65
2021/05/09 11:17:52;;;;;;;2.80;1.80;;;;;;;;;;745401;185;919032;-67
2021/05/09 11:20:17;;;;;;;2.80;1.83;;;;;;;;;;747246;186;918535;-64
2021/05/09 11:22:43;;;;;;;3.33;1.77;;;;;;;;;;744735;186;919192;-67
2021/05/09 11:25:09;;;;;;;2.92;1.80;;;;;;;;;;745212;185;935775;-71
2021/05/09 11:27:36;;;;;;;2.20;1.43;;;;;;;;;;742458;186;918494;-68
2021/05/09 11:30:02;;;;;;;3.40;1.23;;;;;;;;;;754157;181;918456;-66
2021/05/09 11:32:29;;;;;;;3.03;1.60;;;;;;;;;;741705;186;919010;-66
2021/05/09 11:34:53;;;;;;;3.07;1.93;;;;;;;;;;748632;185;637576;-66
2021/05/09 11:37:20;;;;;;;2.47;1.60;;;;;;;;;;748053;185;917321;-65
2021/05/09 11:39:45;;;;;;;3.03;1.80;;;;;;;;;;745606;185;920417;-66
2021/05/09 11:42:12;;;;;;;3.10;1.73;;;;;;;;;;742763;186;918635;-65
2021/05/09 11:44:41;;;;;;;2.60;1.60;;;;;;;;;;751203;187;632907;-67
2021/05/09 11:47:07;;;;;;;3.80;1.60;;;;;;;;;;742013;186;923771;-70
2021/05/09 11:49:34;;;;;;;3.20;1.90;;;;;;;;;;746603;187;915332;-66
2021/05/09 11:51:58;;;;;;;5.70;1.40;;;;;;;;;;739737;186;920233;-67
2021/05/09 11:54:24;;;;;;;5.13;1.87;;;;;;;;;;752192;183;915332;-66
2021/05/09 11:56:58;;;;;;;2.73;1.80;;;;;;;;;;739439;185;1314692;-65
2021/05/09 11:59:27;;;;;;;4.40;1.60;;;;;;;;;;743510;187;918955;-67
2021/05/09 12:01:53;;;;;;;5.80;1.70;;;;;;;;;;741552;185;919287;-69
2021/05/09 12:04:19;;;;;;;2.90;1.30;;;;;;;;;;748728;185;918834;-67
2021/05/09 12:06:45;;;;;;;3.37;1.90;;;;;;;;;;746413;186;919667;-67
2021/05/09 12:09:10;;;;;;;2.70;1.55;;;;;;;;;;741532;185;918970;-66
2021/05/09 12:11:39;;;;;;;2.50;1.70;;;;;;;;;;746718;186;920307;-67
2021/05/09 12:14:05;;;;;;;3.60;2.43;;;;;;;;;;742573;187;932811;-66
2021/05/09 12:16:36;;;;;;;2.70;1.90;;;;;;;;;;742167;187;919001;-67
2021/05/09 12:19:05;;;;;;;3.50;2.10;;;;;;;;;;742798;186;919430;-67
2021/05/09 12:21:31;;;;;;;3.70;1.60;;;;;;;;;;748911;187;915238;-68
2021/05/09 12:24:03;;;;;;;4.80;1.97;;;;;;;;;;742265;184;959324;-66
2021/05/09 12:26:29;;;;;;;3.03;1.80;;;;;;;;;;745686;184;919468;-68
2021/05/09 12:28:55;;;;;;;3.80;2.40;;;;;;;;;;744929;186;919181;-67
2021/05/09 12:31:20;;;;;;;2.33;1.57;;;;;;;;;;753922;184;918021;-66
2021/05/09 12:33:47;;;;;;;5.20;1.80;;;;;;;;;;742017;185;919325;-68
2021/05/09 12:36:12;;;;;;;3.13;1.47;;;;;;;;;;744365;186;918470;-67
2021/05/09 12:38:38;;;;;;;2.60;1.60;;;;;;;;;;746463;186;918756;-67
2021/05/09 12:41:04;;;;;;;3.60;1.93;;;;;;;;;;743407;186;919208;-69
2021/05/09 12:43:36;;;;;;;4.00;2.23;;;;;;;;;;742444;185;946959;-68
2021/05/09 12:46:02;;;;;;;3.83;2.10;;;;;;;;;;748428;186;919666;-67
2021/05/09 12:48:30;;;;;;;2.40;1.50;;;;;;;;;;747534;186;917304;-69
2021/05/09 12:50:56;;;;;;;2.70;1.50;;;;;;;;;;746294;185;919628;-66
2021/05/09 12:53:28;;;;;;;3.57;1.83;;;;;;;;;;744024;185;919458;-65
2021/05/09 12:55:54;;;;;;;3.53;1.73;;;;;;;;;;746357;186;919968;-67
2021/05/09 12:58:19;;;;;;;2.40;1.60;;;;;;;;;;745698;185;919995;-67
2021/05/09 13:00:45;;;;;;;2.80;1.50;;;;;;;;;;740896;185;915251;-69
2021/05/09 13:03:11;;;;;;;4.30;1.73;;;;;;;;;;743487;187;916153;-70
2021/05/09 13:05:37;;;;;;;3.00;1.57;;;;;;;;;;747740;185;912812;-68
2021/05/09 13:08:03;;;;;;;3.50;1.87;;;;;;;;;;743626;185;916913;-67
2021/05/09 13:10:29;;;;;;;2.73;1.60;;;;;;;;;;742273;185;916301;-66
2021/05/09 13:12:55;;;;;;;3.30;1.87;;;;;;;;;;752700;185;628151;-66
2021/05/09 13:15:20;;;;;;;5.43;3.37;;;;;;;;;;742387;187;919534;-68
2021/05/09 13:17:46;;;;;;;5.60;2.10;;;;;;;;;;743984;185;914141;-66
2021/05/09 13:20:13;;;;;;;3.63;2.13;;;;;;;;;;747700;187;919280;-67
2021/05/09 13:22:38;;;;;;;3.67;1.83;;;;;;;;;;745705;186;919998;-67
2021/05/09 13:25:04;;;;;;;4.00;2.07;;;;;;;;;;743977;184;919718;-66
2021/05/09 13:27:32;;;;;;;2.73;1.97;;;;;;;;;;749438;187;919457;-66
2021/05/09 13:29:57;;;;;;;6.43;1.87;;;;;;;;;;747592;185;918830;-65
2021/05/09 13:32:22;;;;;;;4.27;2.00;;;;;;;;;;739749;186;930159;-66
2021/05/09 13:34:48;;;;;;;3.40;1.57;;;;;;;;;;749014;185;919393;-67
2021/05/09 13:37:14;;;;;;;3.60;2.40;;;;;;;;;;748628;186;918902;-66
2021/05/09 13:39:40;;;;;;;3.70;1.70;;;;;;;;;;745264;185;919458;-66
2021/05/09 13:42:06;;;;;;;3.00;1.63;;;;;;;;;;742692;186;919206;-67
2021/05/09 13:44:32;;;;;;;4.13;2.03;;;;;;;;;;750900;186;918943;-69
2021/05/09 13:46:58;;;;;;;3.40;1.67;;;;;;;;;;743557;185;918976;-66
2021/05/09 13:49:24;;;;;;;6.63;2.17;;;;;;;;;;744888;186;919701;-66
2021/05/09 13:51:49;;;;;;;3.80;1.90;;;;;;;;;;746972;185;1128860;-67
2021/05/09 13:54:15;;;;;;;4.47;2.23;;;;;;;;;;744199;187;918957;-65
2021/05/09 13:56:42;;;;;;;4.50;2.33;;;;;;;;;;743477;185;920091;-65
2021/05/09 13:59:07;;;;;;;3.60;1.70;;;;;;;;;;744288;185;941292;-65
2021/05/09 14:01:33;;;;;;;2.50;1.83;;;;;;;;;;744830;185;1247472;-66
2021/05/09 14:04:00;;;;;;;5.60;2.77;;;;;;;;;;744982;186;918991;-66
2021/05/09 14:06:26;;;;;;;2.87;1.57;;;;;;;;;;743372;187;918797;-66
2021/05/09 14:08:50;;;;;;;3.60;2.13;;;;;;;;;;747996;185;919092;-65
2021/05/09 14:11:16;;;;;;;3.63;1.60;;;;;;;;;;747738;186;917809;-64
2021/05/09 14:13:43;;;;;;;4.73;2.30;;;;;;;;;;742396;185;1147660;-66
2021/05/09 14:16:08;;;;;;;4.63;1.87;;;;;;;;;;748599;187;844538;-66